sensor_id;sensor_type;location;lat;lon;timestamp;P1;durP1;ratioP1;P2;durP2;ratioP2
25870;SDS011;13689;48.590;7.752;2023-04-08T00:00:18;10.50;;;6.50;;
25870;SDS011;13689;48.590;7.752;2023-04-08T00:02:44;8.85;;;6.30;;
25870;SDS011;13689;48.590;7.752;2023-04-08T00:05:10;10.10;;;6.78;;
25870;SDS011;13689;48.590;7.752;2023-04-08T00:07:36;10.65;;;6.93;;
25870;SDS011;13689;48.590;7.752;2023-04-08T00:10:02;12.02;;;6.88;;
25870;SDS011;13689;48.590;7.752;2023-04-08T00:12:27;11.60;;;7.20;;
25870;SDS011;13689;48.590;7.752;2023-04-08T00:14:53;9.70;;;6.57;;
25870;SDS011;13689;48.590;7.752;2023-04-08T00:17:19;11.02;;;6.88;;
25870;SDS011;13689;48.590;7.752;2023-04-08T00:19:45;11.27;;;6.95;;
25870;SDS011;13689;48.590;7.752;2023-04-08T00:22:10;9.48;;;6.70;;
25870;SDS011;13689;48.590;7.752;2023-04-08T00:24:36;9.93;;;6.43;;
25870;SDS011;13689;48.590;7.752;2023-04-08T00:27:02;8.85;;;6.32;;
25870;SDS011;13689;48.590;7.752;2023-04-08T00:29:28;12.13;;;6.82;;
25870;SDS011;13689;48.590;7.752;2023-04-08T00:31:53;10.52;;;6.88;;
25870;SDS011;13689;48.590;7.752;2023-04-08T00:34:19;10.15;;;6.53;;
25870;SDS011;13689;48.590;7.752;2023-04-08T00:36:45;12.35;;;6.75;;
25870;SDS011;13689;48.590;7.752;2023-04-08T00:39:13;10.68;;;6.25;;
25870;SDS011;13689;48.590;7.752;2023-04-08T00:41:39;8.82;;;6.55;;
25870;SDS011;13689;48.590;7.752;2023-04-08T00:44:05;9.40;;;7.03;;
25870;SDS011;13689;48.590;7.752;2023-04-08T00:46:33;10.45;;;7.13;;
25870;SDS011;13689;48.590;7.752;2023-04-08T00:49:02;10.68;;;6.80;;
25870;SDS011;13689;48.590;7.752;2023-04-08T00:51:28;8.27;;;5.95;;
25870;SDS011;13689;48.590;7.752;2023-04-08T00:53:55;11.05;;;6.57;;
25870;SDS011;13689;48.590;7.752;2023-04-08T00:56:21;13.02;;;6.90;;
25870;SDS011;13689;48.590;7.752;2023-04-08T00:58:48;9.70;;;6.70;;
25870;SDS011;13689;48.590;7.752;2023-04-08T01:01:21;8.55;;;6.55;;
25870;SDS011;13689;48.590;7.752;2023-04-08T01:06:40;9.88;;;6.70;;
25870;SDS011;13689;48.590;7.752;2023-04-08T01:09:13;9.60;;;6.82;;
25870;SDS011;13689;48.590;7.752;2023-04-08T01:11:45;10.50;;;6.88;;
25870;SDS011;13689;48.590;7.752;2023-04-08T01:14:16;8.40;;;6.53;;
25870;SDS011;13689;48.590;7.752;2023-04-08T01:16:45;10.02;;;6.97;;
25870;SDS011;13689;48.590;7.752;2023-04-08T01:19:13;10.98;;;7.30;;
25870;SDS011;13689;48.590;7.752;2023-04-08T01:21:46;11.15;;;6.97;;
25870;SDS011;13689;48.590;7.752;2023-04-08T01:24:17;11.40;;;7.63;;
25870;SDS011;13689;48.590;7.752;2023-04-08T01:26:55;10.38;;;7.63;;
25870;SDS011;13689;48.590;7.752;2023-04-08T01:29:22;11.20;;;7.72;;
25870;SDS011;13689;48.590;7.752;2023-04-08T01:31:49;10.60;;;7.47;;
25870;SDS011;13689;48.590;7.752;2023-04-08T01:34:17;13.23;;;7.55;;
25870;SDS011;13689;48.590;7.752;2023-04-08T01:39:11;10.85;;;7.38;;
25870;SDS011;13689;48.590;7.752;2023-04-08T01:41:38;11.75;;;7.63;;
25870;SDS011;13689;48.590;7.752;2023-04-08T01:44:04;10.40;;;8.00;;
25870;SDS011;13689;48.590;7.752;2023-04-08T01:46:30;11.50;;;8.35;;
25870;SDS011;13689;48.590;7.752;2023-04-08T01:48:57;11.77;;;8.20;;
25870;SDS011;13689;48.590;7.752;2023-04-08T01:51:23;10.75;;;8.00;;
25870;SDS011;13689;48.590;7.752;2023-04-08T01:53:51;13.82;;;9.18;;
25870;SDS011;13689;48.590;7.752;2023-04-08T01:56:16;11.50;;;8.52;;
25870;SDS011;13689;48.590;7.752;2023-04-08T01:58:47;13.90;;;9.10;;
25870;SDS011;13689;48.590;7.752;2023-04-08T02:01:16;13.48;;;9.13;;
25870;SDS011;13689;48.590;7.752;2023-04-08T02:03:45;11.45;;;8.82;;
25870;SDS011;13689;48.590;7.752;2023-04-08T02:06:12;13.38;;;8.98;;
25870;SDS011;13689;48.590;7.752;2023-04-08T02:08:37;13.48;;;8.40;;
25870;SDS011;13689;48.590;7.752;2023-04-08T02:11:03;13.75;;;9.40;;
25870;SDS011;13689;48.590;7.752;2023-04-08T02:13:29;15.65;;;8.88;;
25870;SDS011;13689;48.590;7.752;2023-04-08T02:15:56;12.55;;;9.05;;
25870;SDS011;13689;48.590;7.752;2023-04-08T02:18:28;14.70;;;8.50;;
25870;SDS011;13689;48.590;7.752;2023-04-08T02:21:02;12.52;;;6.88;;
25870;SDS011;13689;48.590;7.752;2023-04-08T02:23:34;13.18;;;9.30;;
25870;SDS011;13689;48.590;7.752;2023-04-08T02:26:03;12.85;;;9.18;;
25870;SDS011;13689;48.590;7.752;2023-04-08T02:28:38;12.85;;;9.40;;
25870;SDS011;13689;48.590;7.752;2023-04-08T02:31:06;13.10;;;9.38;;
25870;SDS011;13689;48.590;7.752;2023-04-08T02:33:37;14.50;;;9.23;;
25870;SDS011;13689;48.590;7.752;2023-04-08T02:36:04;14.63;;;9.18;;
25870;SDS011;13689;48.590;7.752;2023-04-08T02:38:30;15.95;;;9.52;;
25870;SDS011;13689;48.590;7.752;2023-04-08T02:40:56;12.43;;;8.90;;
25870;SDS011;13689;48.590;7.752;2023-04-08T02:43:22;13.85;;;9.32;;
25870;SDS011;13689;48.590;7.752;2023-04-08T02:45:56;12.70;;;9.98;;
25870;SDS011;13689;48.590;7.752;2023-04-08T02:48:24;16.13;;;10.60;;
25870;SDS011;13689;48.590;7.752;2023-04-08T02:50:50;16.48;;;10.07;;
25870;SDS011;13689;48.590;7.752;2023-04-08T02:53:15;14.85;;;9.98;;
25870;SDS011;13689;48.590;7.752;2023-04-08T02:55:41;12.98;;;9.68;;
25870;SDS011;13689;48.590;7.752;2023-04-08T02:58:06;12.50;;;9.65;;
25870;SDS011;13689;48.590;7.752;2023-04-08T03:00:32;13.88;;;10.00;;
25870;SDS011;13689;48.590;7.752;2023-04-08T03:02:58;13.70;;;10.25;;
25870;SDS011;13689;48.590;7.752;2023-04-08T03:05:24;13.02;;;10.07;;
25870;SDS011;13689;48.590;7.752;2023-04-08T03:07:50;15.38;;;10.77;;
25870;SDS011;13689;48.590;7.752;2023-04-08T03:10:16;14.60;;;10.80;;
25870;SDS011;13689;48.590;7.752;2023-04-08T03:12:41;15.50;;;10.25;;
25870;SDS011;13689;48.590;7.752;2023-04-08T03:15:07;17.67;;;10.57;;
25870;SDS011;13689;48.590;7.752;2023-04-08T03:17:33;14.68;;;11.07;;
25870;SDS011;13689;48.590;7.752;2023-04-08T03:19:59;15.82;;;10.40;;
25870;SDS011;13689;48.590;7.752;2023-04-08T03:22:25;14.48;;;10.90;;
25870;SDS011;13689;48.590;7.752;2023-04-08T03:24:50;13.27;;;10.27;;
25870;SDS011;13689;48.590;7.752;2023-04-08T03:27:16;15.00;;;9.85;;
25870;SDS011;13689;48.590;7.752;2023-04-08T03:29:42;11.77;;;8.80;;
25870;SDS011;13689;48.590;7.752;2023-04-08T03:32:09;13.43;;;9.35;;
25870;SDS011;13689;48.590;7.752;2023-04-08T03:34:35;13.30;;;8.80;;
25870;SDS011;13689;48.590;7.752;2023-04-08T03:37:01;14.15;;;9.07;;
25870;SDS011;13689;48.590;7.752;2023-04-08T03:39:26;11.30;;;8.68;;
25870;SDS011;13689;48.590;7.752;2023-04-08T03:41:52;11.48;;;8.20;;
25870;SDS011;13689;48.590;7.752;2023-04-08T03:44:17;14.55;;;9.18;;
25870;SDS011;13689;48.590;7.752;2023-04-08T03:46:43;10.52;;;7.85;;
25870;SDS011;13689;48.590;7.752;2023-04-08T03:49:09;14.77;;;8.32;;
25870;SDS011;13689;48.590;7.752;2023-04-08T03:51:34;13.00;;;7.80;;
25870;SDS011;13689;48.590;7.752;2023-04-08T03:54:00;10.85;;;7.82;;
25870;SDS011;13689;48.590;7.752;2023-04-08T03:56:26;12.13;;;7.78;;
25870;SDS011;13689;48.590;7.752;2023-04-08T03:58:51;11.48;;;7.90;;
25870;SDS011;13689;48.590;7.752;2023-04-08T04:01:17;13.68;;;7.80;;
25870;SDS011;13689;48.590;7.752;2023-04-08T04:03:42;13.30;;;8.38;;
25870;SDS011;13689;48.590;7.752;2023-04-08T04:06:08;13.88;;;8.52;;
25870;SDS011;13689;48.590;7.752;2023-04-08T04:08:34;11.52;;;8.18;;
25870;SDS011;13689;48.590;7.752;2023-04-08T04:10:59;12.48;;;8.07;;
25870;SDS011;13689;48.590;7.752;2023-04-08T04:13:25;14.65;;;8.32;;
25870;SDS011;13689;48.590;7.752;2023-04-08T04:15:51;14.80;;;8.88;;
25870;SDS011;13689;48.590;7.752;2023-04-08T04:18:16;13.27;;;7.72;;
25870;SDS011;13689;48.590;7.752;2023-04-08T04:20:42;12.27;;;7.22;;
25870;SDS011;13689;48.590;7.752;2023-04-08T04:23:08;11.43;;;7.38;;
25870;SDS011;13689;48.590;7.752;2023-04-08T04:25:34;13.38;;;7.68;;
25870;SDS011;13689;48.590;7.752;2023-04-08T04:27:59;12.45;;;7.35;;
25870;SDS011;13689;48.590;7.752;2023-04-08T04:30:26;14.27;;;7.07;;
25870;SDS011;13689;48.590;7.752;2023-04-08T04:32:52;12.68;;;7.03;;
25870;SDS011;13689;48.590;7.752;2023-04-08T04:35:17;11.88;;;7.35;;
25870;SDS011;13689;48.590;7.752;2023-04-08T04:37:43;12.70;;;7.38;;
25870;SDS011;13689;48.590;7.752;2023-04-08T04:40:09;12.90;;;6.82;;
25870;SDS011;13689;48.590;7.752;2023-04-08T04:42:35;17.65;;;7.18;;
25870;SDS011;13689;48.590;7.752;2023-04-08T04:45:01;15.40;;;6.90;;
25870;SDS011;13689;48.590;7.752;2023-04-08T04:47:26;14.93;;;7.28;;
25870;SDS011;13689;48.590;7.752;2023-04-08T04:49:52;17.65;;;7.88;;
25870;SDS011;13689;48.590;7.752;2023-04-08T04:52:18;13.35;;;7.05;;
25870;SDS011;13689;48.590;7.752;2023-04-08T04:54:43;12.00;;;6.78;;
25870;SDS011;13689;48.590;7.752;2023-04-08T04:57:09;14.65;;;7.93;;
25870;SDS011;13689;48.590;7.752;2023-04-08T04:59:35;14.75;;;7.65;;
25870;SDS011;13689;48.590;7.752;2023-04-08T05:02:01;11.90;;;7.07;;
25870;SDS011;13689;48.590;7.752;2023-04-08T05:04:27;12.32;;;7.32;;
25870;SDS011;13689;48.590;7.752;2023-04-08T05:06:53;13.98;;;7.60;;
25870;SDS011;13689;48.590;7.752;2023-04-08T05:09:18;13.80;;;7.82;;
25870;SDS011;13689;48.590;7.752;2023-04-08T05:11:44;13.45;;;8.27;;
25870;SDS011;13689;48.590;7.752;2023-04-08T05:14:10;14.40;;;7.68;;
25870;SDS011;13689;48.590;7.752;2023-04-08T05:16:36;11.95;;;7.22;;
25870;SDS011;13689;48.590;7.752;2023-04-08T05:19:02;12.15;;;6.93;;
25870;SDS011;13689;48.590;7.752;2023-04-08T05:21:28;12.05;;;7.72;;
25870;SDS011;13689;48.590;7.752;2023-04-08T05:23:54;13.57;;;7.32;;
25870;SDS011;13689;48.590;7.752;2023-04-08T05:26:20;13.90;;;7.75;;
25870;SDS011;13689;48.590;7.752;2023-04-08T05:28:46;13.02;;;6.80;;
25870;SDS011;13689;48.590;7.752;2023-04-08T05:31:16;16.05;;;7.25;;
25870;SDS011;13689;48.590;7.752;2023-04-08T05:33:42;12.45;;;7.18;;
25870;SDS011;13689;48.590;7.752;2023-04-08T05:36:09;13.95;;;7.53;;
25870;SDS011;13689;48.590;7.752;2023-04-08T05:38:35;15.23;;;7.97;;
25870;SDS011;13689;48.590;7.752;2023-04-08T05:41:01;14.73;;;7.60;;
25870;SDS011;13689;48.590;7.752;2023-04-08T05:43:26;16.95;;;7.55;;
25870;SDS011;13689;48.590;7.752;2023-04-08T05:45:52;12.88;;;6.72;;
25870;SDS011;13689;48.590;7.752;2023-04-08T05:48:17;14.27;;;7.57;;
25870;SDS011;13689;48.590;7.752;2023-04-08T05:50:43;15.40;;;7.82;;
25870;SDS011;13689;48.590;7.752;2023-04-08T05:53:09;14.65;;;7.57;;
25870;SDS011;13689;48.590;7.752;2023-04-08T05:55:35;14.27;;;7.25;;
25870;SDS011;13689;48.590;7.752;2023-04-08T05:58:00;15.07;;;8.02;;
25870;SDS011;13689;48.590;7.752;2023-04-08T06:00:26;13.73;;;7.45;;
25870;SDS011;13689;48.590;7.752;2023-04-08T06:02:52;13.90;;;7.45;;
25870;SDS011;13689;48.590;7.752;2023-04-08T06:05:17;13.95;;;7.90;;
25870;SDS011;13689;48.590;7.752;2023-04-08T06:07:43;12.88;;;7.65;;
25870;SDS011;13689;48.590;7.752;2023-04-08T06:10:09;15.88;;;8.52;;
25870;SDS011;13689;48.590;7.752;2023-04-08T06:12:35;17.38;;;8.23;;
25870;SDS011;13689;48.590;7.752;2023-04-08T06:15:03;17.67;;;7.82;;
25870;SDS011;13689;48.590;7.752;2023-04-08T06:17:30;15.95;;;8.25;;
25870;SDS011;13689;48.590;7.752;2023-04-08T06:19:56;15.60;;;8.35;;
25870;SDS011;13689;48.590;7.752;2023-04-08T06:22:21;14.60;;;7.55;;
25870;SDS011;13689;48.590;7.752;2023-04-08T06:24:47;15.27;;;8.52;;
25870;SDS011;13689;48.590;7.752;2023-04-08T06:27:12;17.42;;;9.02;;
25870;SDS011;13689;48.590;7.752;2023-04-08T06:29:38;14.95;;;8.68;;
25870;SDS011;13689;48.590;7.752;2023-04-08T06:32:04;18.85;;;9.43;;
25870;SDS011;13689;48.590;7.752;2023-04-08T06:34:30;14.10;;;8.50;;
25870;SDS011;13689;48.590;7.752;2023-04-08T06:36:56;17.52;;;8.85;;
25870;SDS011;13689;48.590;7.752;2023-04-08T06:39:22;16.98;;;8.93;;
25870;SDS011;13689;48.590;7.752;2023-04-08T06:41:47;21.65;;;9.38;;
25870;SDS011;13689;48.590;7.752;2023-04-08T06:44:13;22.60;;;10.13;;
25870;SDS011;13689;48.590;7.752;2023-04-08T06:46:39;17.20;;;9.82;;
25870;SDS011;13689;48.590;7.752;2023-04-08T06:49:05;17.23;;;9.43;;
25870;SDS011;13689;48.590;7.752;2023-04-08T06:51:31;22.33;;;10.85;;
25870;SDS011;13689;48.590;7.752;2023-04-08T06:53:56;19.30;;;9.95;;
25870;SDS011;13689;48.590;7.752;2023-04-08T06:56:22;22.75;;;9.98;;
25870;SDS011;13689;48.590;7.752;2023-04-08T06:58:50;22.98;;;9.57;;
25870;SDS011;13689;48.590;7.752;2023-04-08T07:01:16;19.35;;;9.18;;
25870;SDS011;13689;48.590;7.752;2023-04-08T07:03:41;19.52;;;10.13;;
25870;SDS011;13689;48.590;7.752;2023-04-08T07:06:07;19.13;;;9.65;;
25870;SDS011;13689;48.590;7.752;2023-04-08T07:08:33;20.00;;;10.50;;
25870;SDS011;13689;48.590;7.752;2023-04-08T07:10:58;21.77;;;9.85;;
25870;SDS011;13689;48.590;7.752;2023-04-08T07:13:25;21.95;;;10.68;;
25870;SDS011;13689;48.590;7.752;2023-04-08T07:15:50;24.60;;;10.43;;
25870;SDS011;13689;48.590;7.752;2023-04-08T07:18:16;22.25;;;11.15;;
25870;SDS011;13689;48.590;7.752;2023-04-08T07:20:42;21.98;;;11.05;;
25870;SDS011;13689;48.590;7.752;2023-04-08T07:23:07;18.88;;;9.73;;
25870;SDS011;13689;48.590;7.752;2023-04-08T07:25:33;21.55;;;9.88;;
25870;SDS011;13689;48.590;7.752;2023-04-08T07:28:01;21.63;;;10.27;;
25870;SDS011;13689;48.590;7.752;2023-04-08T07:30:27;22.35;;;10.38;;
25870;SDS011;13689;48.590;7.752;2023-04-08T07:32:53;21.63;;;11.15;;
25870;SDS011;13689;48.590;7.752;2023-04-08T07:35:19;22.02;;;10.25;;
25870;SDS011;13689;48.590;7.752;2023-04-08T07:37:48;20.58;;;10.45;;
25870;SDS011;13689;48.590;7.752;2023-04-08T07:40:17;20.27;;;10.15;;
25870;SDS011;13689;48.590;7.752;2023-04-08T07:42:43;21.55;;;10.73;;
25870;SDS011;13689;48.590;7.752;2023-04-08T07:45:09;19.05;;;10.27;;
25870;SDS011;13689;48.590;7.752;2023-04-08T07:47:35;23.83;;;11.55;;
25870;SDS011;13689;48.590;7.752;2023-04-08T07:50:01;25.42;;;12.10;;
25870;SDS011;13689;48.590;7.752;2023-04-08T07:52:28;26.95;;;11.43;;
25870;SDS011;13689;48.590;7.752;2023-04-08T07:54:54;20.60;;;9.55;;
25870;SDS011;13689;48.590;7.752;2023-04-08T07:57:20;23.27;;;11.32;;
25870;SDS011;13689;48.590;7.752;2023-04-08T07:59:46;18.15;;;10.55;;
25870;SDS011;13689;48.590;7.752;2023-04-08T08:02:11;25.70;;;11.63;;
25870;SDS011;13689;48.590;7.752;2023-04-08T08:04:37;24.25;;;11.32;;
25870;SDS011;13689;48.590;7.752;2023-04-08T08:07:02;24.05;;;11.18;;
25870;SDS011;13689;48.590;7.752;2023-04-08T08:09:28;21.90;;;11.30;;
25870;SDS011;13689;48.590;7.752;2023-04-08T08:11:54;21.73;;;11.70;;
25870;SDS011;13689;48.590;7.752;2023-04-08T08:14:19;22.70;;;10.80;;
25870;SDS011;13689;48.590;7.752;2023-04-08T08:16:45;21.27;;;11.10;;
25870;SDS011;13689;48.590;7.752;2023-04-08T08:19:12;23.45;;;11.55;;
25870;SDS011;13689;48.590;7.752;2023-04-08T08:21:38;18.98;;;10.45;;
25870;SDS011;13689;48.590;7.752;2023-04-08T08:24:04;19.58;;;10.65;;
25870;SDS011;13689;48.590;7.752;2023-04-08T08:26:30;25.23;;;11.23;;
25870;SDS011;13689;48.590;7.752;2023-04-08T08:28:56;22.35;;;11.73;;
25870;SDS011;13689;48.590;7.752;2023-04-08T08:31:21;16.75;;;8.93;;
25870;SDS011;13689;48.590;7.752;2023-04-08T08:33:47;23.88;;;11.65;;
25870;SDS011;13689;48.590;7.752;2023-04-08T08:36:12;19.92;;;10.75;;
25870;SDS011;13689;48.590;7.752;2023-04-08T08:38:38;25.08;;;11.00;;
25870;SDS011;13689;48.590;7.752;2023-04-08T08:41:03;24.13;;;11.40;;
25870;SDS011;13689;48.590;7.752;2023-04-08T08:43:29;21.38;;;11.95;;
25870;SDS011;13689;48.590;7.752;2023-04-08T08:45:57;21.33;;;10.88;;
25870;SDS011;13689;48.590;7.752;2023-04-08T08:48:23;22.27;;;11.45;;
25870;SDS011;13689;48.590;7.752;2023-04-08T08:50:49;19.48;;;9.80;;
25870;SDS011;13689;48.590;7.752;2023-04-08T08:53:15;20.17;;;10.80;;
25870;SDS011;13689;48.590;7.752;2023-04-08T08:55:41;19.08;;;10.70;;
25870;SDS011;13689;48.590;7.752;2023-04-08T08:58:07;21.38;;;10.10;;
25870;SDS011;13689;48.590;7.752;2023-04-08T09:00:33;12.20;;;6.85;;
25870;SDS011;13689;48.590;7.752;2023-04-08T09:05:51;18.10;;;8.68;;
25870;SDS011;13689;48.590;7.752;2023-04-08T09:11:12;14.27;;;8.32;;
25870;SDS011;13689;48.590;7.752;2023-04-08T09:13:39;19.25;;;9.70;;
25870;SDS011;13689;48.590;7.752;2023-04-08T09:16:06;13.80;;;8.48;;
25870;SDS011;13689;48.590;7.752;2023-04-08T09:18:34;15.88;;;7.28;;
25870;SDS011;13689;48.590;7.752;2023-04-08T09:21:04;15.32;;;8.40;;
25870;SDS011;13689;48.590;7.752;2023-04-08T09:26:12;14.10;;;7.53;;
25870;SDS011;13689;48.590;7.752;2023-04-08T09:28:43;11.73;;;6.50;;
25870;SDS011;13689;48.590;7.752;2023-04-08T09:31:26;13.07;;;6.55;;
25870;SDS011;13689;48.590;7.752;2023-04-08T09:33:54;13.95;;;6.53;;
25870;SDS011;13689;48.590;7.752;2023-04-08T09:36:25;10.82;;;6.47;;
25870;SDS011;13689;48.590;7.752;2023-04-08T09:38:54;13.40;;;6.82;;
25870;SDS011;13689;48.590;7.752;2023-04-08T09:41:20;10.23;;;7.05;;
25870;SDS011;13689;48.590;7.752;2023-04-08T09:43:55;11.75;;;6.40;;
25870;SDS011;13689;48.590;7.752;2023-04-08T09:49:28;12.80;;;5.88;;
25870;SDS011;13689;48.590;7.752;2023-04-08T09:52:05;11.77;;;6.00;;
25870;SDS011;13689;48.590;7.752;2023-04-08T09:57:35;9.63;;;5.47;;
25870;SDS011;13689;48.590;7.752;2023-04-08T10:03:05;7.90;;;5.15;;
25870;SDS011;13689;48.590;7.752;2023-04-08T10:05:26;8.70;;;5.47;;
25870;SDS011;13689;48.590;7.752;2023-04-08T10:07:52;6.82;;;4.60;;
25870;SDS011;13689;48.590;7.752;2023-04-08T10:12:45;4.82;;;4.18;;
25870;SDS011;13689;48.590;7.752;2023-04-08T10:15:21;5.43;;;3.75;;
25870;SDS011;13689;48.590;7.752;2023-04-08T10:17:54;4.95;;;3.83;;
25870;SDS011;13689;48.590;7.752;2023-04-08T10:28:26;4.07;;;3.60;;
25870;SDS011;13689;48.590;7.752;2023-04-08T10:30:52;5.30;;;4.32;;
25870;SDS011;13689;48.590;7.752;2023-04-08T10:35:51;5.40;;;4.40;;
25870;SDS011;13689;48.590;7.752;2023-04-08T10:38:19;6.80;;;4.90;;
25870;SDS011;13689;48.590;7.752;2023-04-08T10:40:46;6.85;;;5.40;;
25870;SDS011;13689;48.590;7.752;2023-04-08T10:43:13;7.07;;;5.82;;
25870;SDS011;13689;48.590;7.752;2023-04-08T10:45:40;8.00;;;5.17;;
25870;SDS011;13689;48.590;7.752;2023-04-08T10:50:41;10.23;;;6.38;;
25870;SDS011;13689;48.590;7.752;2023-04-08T10:53:08;8.98;;;5.75;;
25870;SDS011;13689;48.590;7.752;2023-04-08T10:55:35;11.15;;;6.15;;
25870;SDS011;13689;48.590;7.752;2023-04-08T10:58:04;9.68;;;6.47;;
25870;SDS011;13689;48.590;7.752;2023-04-08T11:00:38;10.45;;;6.88;;
25870;SDS011;13689;48.590;7.752;2023-04-08T11:03:06;10.85;;;6.30;;
25870;SDS011;13689;48.590;7.752;2023-04-08T11:05:32;9.90;;;6.90;;
25870;SDS011;13689;48.590;7.752;2023-04-08T11:07:59;10.38;;;6.80;;
25870;SDS011;13689;48.590;7.752;2023-04-08T11:10:25;9.95;;;6.65;;
25870;SDS011;13689;48.590;7.752;2023-04-08T11:12:55;9.48;;;6.40;;
25870;SDS011;13689;48.590;7.752;2023-04-08T11:15:22;9.52;;;6.38;;
25870;SDS011;13689;48.590;7.752;2023-04-08T11:17:49;11.17;;;6.40;;
25870;SDS011;13689;48.590;7.752;2023-04-08T11:20:15;7.63;;;4.97;;
25870;SDS011;13689;48.590;7.752;2023-04-08T11:22:41;9.63;;;7.00;;
25870;SDS011;13689;48.590;7.752;2023-04-08T11:25:08;12.60;;;7.40;;
25870;SDS011;13689;48.590;7.752;2023-04-08T11:27:34;47.45;;;26.38;;
25870;SDS011;13689;48.590;7.752;2023-04-08T11:30:01;16.08;;;10.70;;
25870;SDS011;13689;48.590;7.752;2023-04-08T11:32:28;9.13;;;4.82;;
25870;SDS011;13689;48.590;7.752;2023-04-08T11:34:54;11.43;;;6.55;;
25870;SDS011;13689;48.590;7.752;2023-04-08T11:37:19;11.40;;;6.85;;
25870;SDS011;13689;48.590;7.752;2023-04-08T11:39:46;11.18;;;6.97;;
25870;SDS011;13689;48.590;7.752;2023-04-08T11:42:29;10.57;;;6.82;;
25870;SDS011;13689;48.590;7.752;2023-04-08T11:44:58;9.30;;;5.72;;
25870;SDS011;13689;48.590;7.752;2023-04-08T11:47:31;12.00;;;5.43;;
25870;SDS011;13689;48.590;7.752;2023-04-08T11:49:57;10.10;;;7.18;;
25870;SDS011;13689;48.590;7.752;2023-04-08T11:52:39;9.50;;;5.70;;
25870;SDS011;13689;48.590;7.752;2023-04-08T11:55:30;11.38;;;6.88;;
25870;SDS011;13689;48.590;7.752;2023-04-08T11:58:00;12.90;;;5.50;;
25870;SDS011;13689;48.590;7.752;2023-04-08T12:00:28;10.18;;;7.18;;
25870;SDS011;13689;48.590;7.752;2023-04-08T12:02:53;9.07;;;6.55;;
25870;SDS011;13689;48.590;7.752;2023-04-08T12:05:19;10.57;;;6.25;;
25870;SDS011;13689;48.590;7.752;2023-04-08T12:07:45;11.00;;;6.65;;
25870;SDS011;13689;48.590;7.752;2023-04-08T12:10:11;9.23;;;6.38;;
25870;SDS011;13689;48.590;7.752;2023-04-08T12:12:38;11.55;;;5.97;;
25870;SDS011;13689;48.590;7.752;2023-04-08T12:15:04;11.65;;;6.88;;
25870;SDS011;13689;48.590;7.752;2023-04-08T12:17:31;8.83;;;6.07;;
25870;SDS011;13689;48.590;7.752;2023-04-08T12:19:56;10.02;;;6.15;;
25870;SDS011;13689;48.590;7.752;2023-04-08T12:22:22;10.15;;;6.50;;
25870;SDS011;13689;48.590;7.752;2023-04-08T12:24:48;7.80;;;5.35;;
25870;SDS011;13689;48.590;7.752;2023-04-08T12:27:13;4.45;;;3.08;;
25870;SDS011;13689;48.590;7.752;2023-04-08T12:29:39;9.65;;;5.50;;
25870;SDS011;13689;48.590;7.752;2023-04-08T12:32:07;7.90;;;5.88;;
25870;SDS011;13689;48.590;7.752;2023-04-08T12:34:33;9.02;;;6.05;;
25870;SDS011;13689;48.590;7.752;2023-04-08T12:36:58;8.60;;;5.72;;
25870;SDS011;13689;48.590;7.752;2023-04-08T12:39:24;12.95;;;6.20;;
25870;SDS011;13689;48.590;7.752;2023-04-08T12:41:50;8.55;;;6.20;;
25870;SDS011;13689;48.590;7.752;2023-04-08T12:44:15;8.70;;;5.65;;
25870;SDS011;13689;48.590;7.752;2023-04-08T12:46:41;10.48;;;6.25;;
25870;SDS011;13689;48.590;7.752;2023-04-08T12:49:07;9.15;;;5.90;;
25870;SDS011;13689;48.590;7.752;2023-04-08T12:51:33;8.75;;;6.53;;
25870;SDS011;13689;48.590;7.752;2023-04-08T12:54:00;6.43;;;4.60;;
25870;SDS011;13689;48.590;7.752;2023-04-08T12:56:27;10.02;;;7.15;;
25870;SDS011;13689;48.590;7.752;2023-04-08T12:58:53;8.60;;;5.57;;
25870;SDS011;13689;48.590;7.752;2023-04-08T13:01:20;10.05;;;6.68;;
25870;SDS011;13689;48.590;7.752;2023-04-08T13:03:46;8.10;;;6.00;;
25870;SDS011;13689;48.590;7.752;2023-04-08T13:06:12;10.45;;;5.13;;
25870;SDS011;13689;48.590;7.752;2023-04-08T13:08:38;8.00;;;5.85;;
25870;SDS011;13689;48.590;7.752;2023-04-08T13:11:04;8.65;;;5.90;;
25870;SDS011;13689;48.590;7.752;2023-04-08T13:13:29;8.27;;;6.05;;
25870;SDS011;13689;48.590;7.752;2023-04-08T13:15:55;8.45;;;6.57;;
25870;SDS011;13689;48.590;7.752;2023-04-08T13:18:21;12.02;;;6.85;;
25870;SDS011;13689;48.590;7.752;2023-04-08T13:20:46;8.68;;;5.93;;
25870;SDS011;13689;48.590;7.752;2023-04-08T13:23:12;8.20;;;5.75;;
25870;SDS011;13689;48.590;7.752;2023-04-08T13:25:39;10.07;;;6.90;;
25870;SDS011;13689;48.590;7.752;2023-04-08T13:28:05;10.40;;;7.10;;
25870;SDS011;13689;48.590;7.752;2023-04-08T13:30:30;10.57;;;6.68;;
25870;SDS011;13689;48.590;7.752;2023-04-08T13:32:56;11.45;;;7.03;;
25870;SDS011;13689;48.590;7.752;2023-04-08T13:35:22;10.85;;;7.18;;
25870;SDS011;13689;48.590;7.752;2023-04-08T13:37:47;10.50;;;6.97;;
25870;SDS011;13689;48.590;7.752;2023-04-08T13:40:13;10.73;;;7.13;;
25870;SDS011;13689;48.590;7.752;2023-04-08T13:42:39;9.68;;;7.18;;
25870;SDS011;13689;48.590;7.752;2023-04-08T13:45:05;10.15;;;6.85;;
25870;SDS011;13689;48.590;7.752;2023-04-08T13:47:31;11.10;;;7.13;;
25870;SDS011;13689;48.590;7.752;2023-04-08T13:49:57;9.95;;;6.63;;
25870;SDS011;13689;48.590;7.752;2023-04-08T13:52:23;11.25;;;7.45;;
25870;SDS011;13689;48.590;7.752;2023-04-08T13:54:48;6.22;;;4.32;;
25870;SDS011;13689;48.590;7.752;2023-04-08T13:57:14;10.80;;;7.65;;
25870;SDS011;13689;48.590;7.752;2023-04-08T13:59:40;13.00;;;7.80;;
25870;SDS011;13689;48.590;7.752;2023-04-08T14:02:06;13.18;;;7.80;;
25870;SDS011;13689;48.590;7.752;2023-04-08T14:04:32;16.02;;;8.18;;
25870;SDS011;13689;48.590;7.752;2023-04-08T14:06:58;12.30;;;7.70;;
25870;SDS011;13689;48.590;7.752;2023-04-08T14:09:24;15.20;;;8.23;;
25870;SDS011;13689;48.590;7.752;2023-04-08T14:11:50;13.07;;;8.85;;
25870;SDS011;13689;48.590;7.752;2023-04-08T14:14:16;9.05;;;5.05;;
25870;SDS011;13689;48.590;7.752;2023-04-08T14:16:41;15.60;;;8.10;;
25870;SDS011;13689;48.590;7.752;2023-04-08T14:19:07;13.90;;;8.10;;
25870;SDS011;13689;48.590;7.752;2023-04-08T14:21:33;19.05;;;8.75;;
25870;SDS011;13689;48.590;7.752;2023-04-08T14:23:59;12.95;;;8.05;;
25870;SDS011;13689;48.590;7.752;2023-04-08T14:26:25;13.57;;;8.23;;
25870;SDS011;13689;48.590;7.752;2023-04-08T14:28:51;13.90;;;9.02;;
25870;SDS011;13689;48.590;7.752;2023-04-08T14:31:16;11.95;;;8.07;;
25870;SDS011;13689;48.590;7.752;2023-04-08T14:33:42;14.63;;;8.25;;
25870;SDS011;13689;48.590;7.752;2023-04-08T14:36:08;12.70;;;8.60;;
25870;SDS011;13689;48.590;7.752;2023-04-08T14:38:34;12.82;;;8.82;;
25870;SDS011;13689;48.590;7.752;2023-04-08T14:41:00;12.68;;;8.43;;
25870;SDS011;13689;48.590;7.752;2023-04-08T14:43:25;15.20;;;8.48;;
25870;SDS011;13689;48.590;7.752;2023-04-08T14:45:51;12.20;;;8.10;;
25870;SDS011;13689;48.590;7.752;2023-04-08T14:48:17;12.43;;;9.20;;
25870;SDS011;13689;48.590;7.752;2023-04-08T14:50:43;13.55;;;9.02;;
25870;SDS011;13689;48.590;7.752;2023-04-08T14:53:09;12.77;;;8.68;;
25870;SDS011;13689;48.590;7.752;2023-04-08T14:55:35;16.33;;;8.43;;
25870;SDS011;13689;48.590;7.752;2023-04-08T14:58:02;15.07;;;8.98;;
25870;SDS011;13689;48.590;7.752;2023-04-08T15:00:28;13.00;;;7.43;;
25870;SDS011;13689;48.590;7.752;2023-04-08T15:02:54;12.20;;;7.82;;
25870;SDS011;13689;48.590;7.752;2023-04-08T15:05:20;10.55;;;7.85;;
25870;SDS011;13689;48.590;7.752;2023-04-08T15:07:46;13.40;;;8.77;;
25870;SDS011;13689;48.590;7.752;2023-04-08T15:10:12;12.77;;;8.52;;